Time;durP1;ratioP1;P1;durP2;ratioP2;P2;SDS_P1;SDS_P2;PMS_P1;PMS_P2;Temp;Humidity;BMP_temperature;BMP_pressure;BME280_temperature;BME280_humidity;BME280_pressure;Samples;Min_cycle;Max_cycle;Signal;HPM_P1;HPM_P2
2023/04/03 00:00:55;;;;;;;7.53;3.53;;;;;;;3.49;89.52;99364.75;5006344;28;20697;-59
2023/04/03 00:03:21;;;;;;;5.07;3.23;;;;;;;3.47;88.69;99364.03;5003022;28;20339;-60
2023/04/03 00:05:48;;;;;;;4.97;2.87;;;;;;;3.49;88.41;99361.34;5005961;28;20228;-60
2023/04/03 00:08:15;;;;;;;6.30;3.30;;;;;;;3.50;88.16;99363.00;5003467;28;20294;-60
2023/04/03 00:10:41;;;;;;;5.30;2.90;;;;;;;3.49;87.43;99364.75;5005825;28;20359;-60
2023/04/03 00:13:08;;;;;;;5.23;3.03;;;;;;;3.52;87.39;99368.91;5004203;28;20283;-60
2023/04/03 00:15:37;;;;;;;5.53;3.33;;;;;;;3.54;86.96;99356.75;5005862;28;20224;-60
2023/04/03 00:18:05;;;;;;;5.47;3.00;;;;;;;3.58;86.09;99371.13;5003591;28;20356;-60
2023/04/03 00:20:32;;;;;;;5.50;3.10;;;;;;;3.52;86.19;99369.75;5006471;28;20236;-60
2023/04/03 00:22:59;;;;;;;4.60;3.10;;;;;;;3.57;87.15;99374.63;5004729;28;20239;-60
2023/04/03 00:25:26;;;;;;;4.53;2.97;;;;;;;3.49;87.73;99369.94;5003713;28;20232;-60
2023/04/03 00:27:53;;;;;;;6.20;3.25;;;;;;;3.61;87.52;99378.72;5004374;28;20493;-60
2023/04/03 00:30:22;;;;;;;4.33;3.10;;;;;;;3.53;88.09;99378.31;5003191;28;20239;-59
2023/04/03 00:32:49;;;;;;;6.53;3.40;;;;;;;3.49;89.32;99379.41;5006811;28;20282;-60
2023/04/03 00:35:18;;;;;;;3.87;2.87;;;;;;;3.51;88.12;99380.16;5000272;28;20310;-60
2023/04/03 00:37:45;;;;;;;4.47;3.03;;;;;;;3.49;88.94;99384.56;5005589;28;20235;-60
2023/04/03 00:40:14;;;;;;;4.97;3.00;;;;;;;3.44;88.64;99378.84;4989364;28;20421;-60
2023/04/03 00:42:42;;;;;;;5.63;3.33;;;;;;;3.42;88.68;99376.34;5005460;28;20244;-60
2023/04/03 00:45:31;;;;;;;5.37;3.20;;;;;;;3.34;88.85;99376.78;5004786;28;20232;-59
2023/04/03 00:47:59;;;;;;;7.40;3.00;;;;;;;3.24;90.18;99376.47;5003693;28;20239;-60
2023/04/03 00:50:27;;;;;;;5.43;2.70;;;;;;;3.14;93.27;99377.06;5002559;28;20265;-60
2023/04/03 00:52:55;;;;;;;3.67;2.73;;;;;;;2.97;94.64;99377.97;5003427;28;20344;-60
2023/04/03 00:55:22;;;;;;;5.80;2.90;;;;;;;2.78;97.60;99377.25;5003345;28;20284;-60
2023/04/03 00:57:49;;;;;;;4.93;2.83;;;;;;;2.62;98.29;99371.22;5004231;28;20838;-60
2023/04/03 01:00:20;;;;;;;4.73;2.77;;;;;;;2.49;99.68;99371.88;5001360;28;20220;-60
2023/04/03 01:02:47;;;;;;;4.80;2.87;;;;;;;2.33;99.97;99382.16;5003744;28;20251;-60
2023/04/03 01:05:16;;;;;;;4.20;2.50;;;;;;;2.29;100.00;99374.66;5001211;28;20217;-60
2023/04/03 01:07:46;;;;;;;4.10;2.67;;;;;;;2.22;100.00;99372.41;5002876;28;20228;-60
2023/04/03 01:10:16;;;;;;;4.90;2.87;;;;;;;2.19;100.00;99382.03;5017062;28;20224;-59
2023/04/03 01:12:46;;;;;;;5.97;3.30;;;;;;;2.24;100.00;99379.22;5003545;28;20237;-59
2023/04/03 01:15:15;;;;;;;6.03;3.53;;;;;;;2.23;99.36;99368.09;4992454;28;20300;-60
2023/04/03 01:17:43;;;;;;;4.03;2.90;;;;;;;2.21;98.84;99375.88;5005734;28;20686;-60
2023/04/03 01:20:37;;;;;;;3.83;2.67;;;;;;;2.28;97.59;99373.00;4991002;28;20228;-60
2023/04/03 01:23:18;;;;;;;4.00;2.80;;;;;;;2.32;98.17;99389.97;5001894;28;20224;-60
2023/04/03 01:25:47;;;;;;;4.97;2.87;;;;;;;2.30;97.65;99391.78;5004469;28;20231;-60
2023/04/03 01:28:18;;;;;;;3.73;2.67;;;;;;;2.25;98.00;99386.03;5005963;28;20283;-60
2023/04/03 01:30:51;;;;;;;4.00;2.73;;;;;;;2.29;97.78;99390.13;5007627;28;20697;-59
2023/04/03 01:33:19;;;;;;;4.33;2.53;;;;;;;2.20;97.94;99384.53;5003697;28;20359;-59
2023/04/03 01:35:47;;;;;;;3.60;2.50;;;;;;;2.11;98.49;99392.75;4993266;28;20655;-59
2023/04/03 01:38:14;;;;;;;6.37;2.37;;;;;;;2.00;99.44;99395.03;5018376;28;20212;-59
2023/04/03 01:40:41;;;;;;;3.50;2.53;;;;;;;1.91;100.00;99392.00;5003204;28;20295;-59
2023/04/03 01:43:08;;;;;;;3.33;2.53;;;;;;;1.80;100.00;99383.97;5001109;28;20588;-63
2023/04/03 01:45:35;;;;;;;4.93;2.97;;;;;;;1.69;100.00;99388.81;5003456;28;20232;-60
2023/04/03 01:48:02;;;;;;;4.20;2.60;;;;;;;1.58;100.00;99389.38;5001807;28;20234;-60
2023/04/03 01:50:30;;;;;;;3.67;2.63;;;;;;;1.54;100.00;99385.28;5002032;28;20839;-60
2023/04/03 01:52:56;;;;;;;4.30;2.90;;;;;;;1.45;100.00;99389.97;5002724;28;20326;-60
2023/04/03 01:55:23;;;;;;;6.70;3.27;;;;;;;1.31;100.00;99379.50;5001089;28;20267;-59
2023/04/03 01:57:50;;;;;;;4.82;3.30;;;;;;;1.33;100.00;99380.25;5004192;28;20435;-60
2023/04/03 02:00:17;;;;;;;7.20;3.70;;;;;;;1.29;100.00;99378.72;4999955;28;20220;-59
2023/04/03 02:02:44;;;;;;;3.90;2.70;;;;;;;1.28;100.00;99370.16;4992539;28;20324;-60
2023/04/03 02:05:11;;;;;;;4.20;2.63;;;;;;;1.27;100.00;99383.13;5002577;28;20217;-59
2023/04/03 02:07:39;;;;;;;5.30;3.10;;;;;;;1.24;100.00;99378.13;5006230;28;20248;-59
2023/04/03 02:10:06;;;;;;;5.17;3.00;;;;;;;1.13;100.00;99373.47;4994398;28;20239;-59
2023/04/03 02:12:33;;;;;;;6.50;3.10;;;;;;;1.02;100.00;99374.81;5007163;28;20236;-59
2023/04/03 02:15:00;;;;;;;5.17;3.10;;;;;;;1.03;100.00;99370.50;5007883;28;20239;-61
2023/04/03 02:17:27;;;;;;;4.17;2.83;;;;;;;0.91;100.00;99379.63;4998405;28;20311;-60
2023/04/03 02:19:55;;;;;;;6.93;4.13;;;;;;;1.04;100.00;99369.59;5009127;28;20231;-60
2023/04/03 02:22:21;;;;;;;4.80;3.40;;;;;;;0.98;100.00;99364.75;5002684;28;20247;-60
2023/04/03 02:24:50;;;;;;;7.33;3.23;;;;;;;1.10;100.00;99364.16;5006262;28;20236;-60
2023/04/03 02:27:16;;;;;;;5.53;3.70;;;;;;;1.04;100.00;99367.03;5006092;28;20239;-60
2023/04/03 02:29:43;;;;;;;5.17;3.33;;;;;;;1.00;100.00;99363.78;5006862;28;21194;-60
2023/04/03 02:32:10;;;;;;;3.90;2.80;;;;;;;0.90;100.00;99366.81;5003579;28;20224;-59
2023/04/03 02:34:36;;;;;;;5.67;3.07;;;;;;;0.84;100.00;99367.97;5021672;28;20255;-59
2023/04/03 02:37:05;;;;;;;3.37;2.70;;;;;;;0.75;100.00;99358.91;5003817;28;20243;-59
2023/04/03 02:39:31;;;;;;;5.77;3.30;;;;;;;0.79;100.00;99368.16;5008237;28;20283;-59
2023/04/03 02:42:00;;;;;;;5.53;3.10;;;;;;;0.75;100.00;99363.25;5007923;28;20240;-60
2023/04/03 02:44:28;;;;;;;5.27;3.40;;;;;;;0.69;100.00;99359.19;5004484;28;20236;-60
2023/04/03 02:46:55;;;;;;;5.23;3.27;;;;;;;0.77;100.00;99364.81;5007597;28;20573;-60
2023/04/03 02:49:21;;;;;;;6.00;3.40;;;;;;;0.59;100.00;99359.59;5003244;28;20228;-60
2023/04/03 02:51:48;;;;;;;5.80;3.63;;;;;;;0.58;100.00;99362.25;4997004;28;20228;-60
2023/04/03 02:54:15;;;;;;;4.20;3.03;;;;;;;0.64;100.00;99359.41;5021668;28;20308;-60
2023/04/03 02:56:46;;;;;;;4.60;3.33;;;;;;;0.51;100.00;99364.28;5006022;28;20702;-60
2023/04/03 02:59:14;;;;;;;4.50;3.27;;;;;;;0.46;100.00;99362.81;5003880;28;20744;-60
2023/04/03 03:04:23;;;;;;;5.03;3.17;;;;;;;0.39;100.00;99364.81;5559727;22;20242;-59
2023/04/03 03:06:50;;;;;;;4.90;3.57;;;;;;;0.26;100.00;99364.50;5024403;28;20224;-59
2023/04/03 03:09:17;;;;;;;5.47;3.83;;;;;;;0.18;100.00;99364.00;5031875;28;20235;-59
2023/04/03 03:11:43;;;;;;;9.87;3.27;;;;;;;0.17;100.00;99367.47;5030995;28;20710;-59
2023/04/03 03:14:10;;;;;;;6.37;3.60;;;;;;;0.14;100.00;99364.13;5024888;28;20246;-59
2023/04/03 03:16:38;;;;;;;4.23;2.83;;;;;;;0.07;100.00;99362.75;5028434;28;20705;-58
2023/04/03 03:19:04;;;;;;;5.20;3.80;;;;;;;0.06;100.00;99365.38;5024694;28;20290;-57
2023/04/03 03:21:31;;;;;;;7.27;3.40;;;;;;;-0.01;100.00;99360.50;5026126;28;20236;-59
2023/04/03 03:23:58;;;;;;;5.47;3.57;;;;;;;-0.09;100.00;99352.31;5024593;28;20238;-59
2023/04/03 03:26:24;;;;;;;5.27;3.37;;;;;;;-0.05;100.00;99353.03;5025582;28;20631;-59
2023/04/03 03:28:51;;;;;;;5.13;3.47;;;;;;;-0.05;100.00;99353.84;5025327;28;20240;-59
2023/04/03 03:31:18;;;;;;;5.70;3.57;;;;;;;-0.12;100.00;99357.56;5251477;22;20661;-59
2023/04/03 03:33:46;;;;;;;6.77;3.70;;;;;;;-0.03;100.00;99348.66;5025116;28;20235;-59
2023/04/03 03:36:13;;;;;;;4.43;3.23;;;;;;;-0.09;100.00;99349.75;5022859;28;20233;-59
2023/04/03 03:38:39;;;;;;;4.80;3.77;;;;;;;-0.16;100.00;99351.75;5024793;28;20232;-59
2023/04/03 03:41:06;;;;;;;5.53;3.63;;;;;;;-0.13;100.00;99352.50;5019378;28;20236;-60
2023/04/03 03:43:35;;;;;;;4.57;3.20;;;;;;;-0.22;100.00;99351.16;5007248;28;20231;-59
2023/04/03 03:46:03;;;;;;;6.07;3.20;;;;;;;-0.26;100.00;99350.47;5002496;28;20258;-59
2023/04/03 03:48:30;;;;;;;6.43;3.53;;;;;;;-0.35;100.00;99359.34;5005789;28;20688;-60
2023/04/03 03:50:58;;;;;;;5.07;3.23;;;;;;;-0.28;100.00;99359.94;5002784;28;20645;-60
2023/04/03 03:53:29;;;;;;;4.87;3.40;;;;;;;-0.39;100.00;99354.44;5003932;28;20239;-59
2023/04/03 03:55:59;;;;;;;5.60;3.60;;;;;;;-0.37;100.00;99350.88;4989911;28;20239;-60
2023/04/03 03:58:28;;;;;;;6.40;3.30;;;;;;;-0.40;100.00;99355.31;5008410;28;20290;-60
2023/04/03 04:00:55;;;;;;;6.77;3.83;;;;;;;-0.47;100.00;99360.69;5007682;28;20235;-59
2023/04/03 04:03:22;;;;;;;7.47;3.43;;;;;;;-0.41;100.00;99362.16;5002820;28;20242;-60
2023/04/03 04:05:49;;;;;;;6.37;3.53;;;;;;;-0.40;100.00;99368.16;5003543;28;20232;-59
2023/04/03 04:08:18;;;;;;;9.07;4.27;;;;;;;-0.42;100.00;99364.81;5003239;28;20231;-60
2023/04/03 04:10:46;;;;;;;6.57;3.77;;;;;;;-0.45;100.00;99366.59;5008732;28;20226;-60
2023/04/03 04:13:15;;;;;;;6.60;4.17;;;;;;;-0.53;100.00;99365.25;5003487;28;20234;-60
2023/04/03 04:15:41;;;;;;;5.00;3.77;;;;;;;-0.47;100.00;99372.69;5006724;28;20238;-60
2023/04/03 04:18:08;;;;;;;5.23;3.83;;;;;;;-0.51;100.00;99371.13;5020508;28;20228;-59
2023/04/03 04:20:35;;;;;;;5.73;3.80;;;;;;;-0.60;100.00;99373.19;5008953;28;20239;-59
2023/04/03 04:23:02;;;;;;;6.27;3.83;;;;;;;-0.54;100.00;99374.66;4991060;28;20792;-59
2023/04/03 04:25:33;;;;;;;6.37;3.87;;;;;;;-0.56;100.00;99379.03;4999847;28;20241;-59
2023/04/03 04:27:59;;;;;;;5.93;3.90;;;;;;;-0.60;100.00;99378.31;5006996;28;20282;-59
2023/04/03 04:30:27;;;;;;;9.10;4.33;;;;;;;-0.59;100.00;99381.72;4993093;28;20689;-59
2023/04/03 04:32:55;;;;;;;8.97;5.03;;;;;;;-0.29;100.00;99381.38;5008062;28;20832;-60
2023/04/03 04:35:22;;;;;;;7.97;4.20;;;;;;;-0.18;100.00;99383.47;5001998;28;20231;-57
2023/04/03 04:37:51;;;;;;;5.97;4.43;;;;;;;-0.08;100.00;99389.09;5007026;28;20791;-59
2023/04/03 04:40:18;;;;;;;10.73;4.77;;;;;;;-0.13;100.00;99383.31;5001505;28;20249;-59
2023/04/03 04:42:46;;;;;;;6.83;4.73;;;;;;;-0.05;100.00;99386.38;5000387;28;20311;-60
2023/04/03 04:45:13;;;;;;;6.03;3.60;;;;;;;0.35;100.00;99400.06;5001074;28;20232;-60
2023/04/03 04:47:42;;;;;;;5.17;3.97;;;;;;;0.40;100.00;99398.13;5006797;28;20240;-60
2023/04/03 04:50:11;;;;;;;7.60;3.93;;;;;;;0.59;98.28;99402.47;4998160;28;20241;-58
2023/04/03 04:52:38;;;;;;;7.13;3.90;;;;;;;0.44;100.00;99406.56;5013456;28;20762;-59
2023/04/03 04:55:06;;;;;;;6.17;3.73;;;;;;;0.33;100.00;99409.56;5003276;28;20366;-59
2023/04/03 04:57:34;;;;;;;3.90;3.30;;;;;;;0.19;100.00;99404.19;5007919;28;20884;-59
2023/04/03 05:00:02;;;;;;;4.87;3.13;;;;;;;0.12;100.00;99412.16;5002800;28;20227;-59
2023/04/03 05:02:30;;;;;;;5.10;3.40;;;;;;;0.01;100.00;99410.94;5007253;28;20647;-59
2023/04/03 05:04:57;;;;;;;4.83;3.33;;;;;;;-0.11;100.00;99409.75;5005672;28;20234;-57
2023/04/03 05:07:27;;;;;;;5.37;3.40;;;;;;;-0.15;100.00;99416.72;5006812;28;20320;-56
2023/04/03 05:09:54;;;;;;;6.80;3.90;;;;;;;-0.22;100.00;99420.44;5007260;28;20249;-59
2023/04/03 05:12:21;;;;;;;5.80;3.13;;;;;;;-0.33;100.00;99420.88;4983581;28;20239;-61
2023/04/03 05:14:54;;;;;;;6.33;3.30;;;;;;;-0.35;100.00;99414.97;5004748;28;20567;-60
2023/04/03 05:17:22;;;;;;;7.27;3.80;;;;;;;-0.37;100.00;99414.19;5004606;28;20689;-60
2023/04/03 05:19:53;;;;;;;7.50;3.73;;;;;;;-0.42;100.00;99406.66;5004431;28;20234;-60
2023/04/03 05:22:22;;;;;;;7.50;3.50;;;;;;;-0.48;100.00;99415.47;5002405;28;20244;-60
2023/04/03 05:24:49;;;;;;;5.43;3.33;;;;;;;-0.42;100.00;99416.13;5003881;28;20236;-60
2023/04/03 05:27:17;;;;;;;6.50;4.15;;;;;;;-0.38;100.00;99422.78;5003345;28;20781;-59
2023/04/03 05:29:48;;;;;;;5.17;3.80;;;;;;;-0.40;100.00;99420.28;5006736;28;20236;-60
2023/04/03 05:32:22;;;;;;;4.37;3.33;;;;;;;-0.35;100.00;99422.66;4986467;28;20237;-60
2023/04/03 05:34:54;;;;;;;4.50;3.13;;;;;;;-0.38;100.00;99421.03;5006808;28;20231;-58
2023/04/03 05:37:21;;;;;;;5.47;3.40;;;;;;;-0.38;100.00;99417.66;4996385;28;20228;-58
2023/04/03 05:39:47;;;;;;;7.13;3.70;;;;;;;-0.38;100.00;99426.19;5006116;28;20231;-58
2023/04/03 05:42:15;;;;;;;6.23;3.60;;;;;;;-0.40;100.00;99422.84;5001690;28;20606;-59
2023/04/03 05:44:42;;;;;;;7.00;3.83;;;;;;;-0.39;100.00;99423.69;5010848;28;20230;-58
2023/04/03 05:47:09;;;;;;;4.97;3.53;;;;;;;-0.35;100.00;99423.47;5005736;28;20234;-59
2023/04/03 05:49:40;;;;;;;5.07;3.40;;;;;;;-0.22;100.00;99430.69;5010565;28;20223;-59
2023/04/03 05:52:07;;;;;;;5.57;3.60;;;;;;;-0.06;100.00;99428.34;5011415;28;20239;-59
2023/04/03 05:54:36;;;;;;;6.23;4.00;;;;;;;0.02;100.00;99426.28;5007488;28;20347;-58
2023/04/03 05:57:12;;;;;;;4.50;3.23;;;;;;;-0.03;100.00;99431.59;4998189;28;20238;-61
2023/04/03 05:59:41;;;;;;;126.47;83.70;;;;;;;0.05;100.00;99436.41;5005681;28;20235;-59
2023/04/03 06:02:08;;;;;;;43.53;31.27;;;;;;;0.17;100.00;99436.81;5010229;28;20456;-59
2023/04/03 06:04:38;;;;;;;7.83;4.23;;;;;;;0.25;100.00;99434.75;5016870;28;20235;-60
2023/04/03 06:07:04;;;;;;;5.77;3.57;;;;;;;0.31;100.00;99441.38;5005761;28;20234;-59
2023/04/03 06:09:31;;;;;;;5.73;3.87;;;;;;;0.31;100.00;99436.22;5010586;28;20291;-59
2023/04/03 06:11:59;;;;;;;6.07;3.17;;;;;;;0.39;100.00;99440.13;5008495;28;20246;-59
2023/04/03 06:14:27;;;;;;;3.93;3.10;;;;;;;0.46;100.00;99443.28;5006155;28;20296;-59
2023/04/03 06:16:55;;;;;;;4.43;3.00;;;;;;;0.55;99.86;99449.75;5005971;28;20236;-60
2023/04/03 06:19:22;;;;;;;4.70;3.10;;;;;;;0.63;99.59;99447.69;5012355;28;20586;-59
2023/04/03 06:21:54;;;;;;;4.97;3.00;;;;;;;0.69;100.00;99452.56;5010990;28;20232;-59
2023/04/03 06:24:22;;;;;;;5.63;3.20;;;;;;;0.86;98.85;99459.50;5008254;28;20717;-60
2023/04/03 06:26:51;;;;;;;5.67;3.03;;;;;;;0.95;100.00;99454.84;5005277;28;20231;-59
2023/04/03 06:29:18;;;;;;;5.83;3.33;;;;;;;1.12;99.77;99460.06;5011944;28;20293;-59
2023/04/03 06:31:45;;;;;;;4.30;3.07;;;;;;;1.16;96.14;99465.88;5011089;28;20637;-59
2023/04/03 06:34:12;;;;;;;5.23;3.17;;;;;;;1.29;95.91;99461.84;5005453;28;20232;-58
2023/04/03 06:36:39;;;;;;;5.57;2.90;;;;;;;1.39;98.06;99464.00;5014805;28;20239;-58
2023/04/03 06:39:07;;;;;;;4.83;3.57;;;;;;;1.51;93.83;99460.03;5002255;28;20685;-59
2023/04/03 06:41:34;;;;;;;4.27;3.20;;;;;;;1.67;96.37;99460.94;5010350;28;20264;-59
2023/04/03 06:44:00;;;;;;;5.63;2.93;;;;;;;1.77;97.16;99463.94;5000924;28;20217;-59
2023/04/03 06:46:27;;;;;;;5.30;2.97;;;;;;;1.90;96.78;99461.59;5003563;28;20281;-59
2023/04/03 06:48:54;;;;;;;6.17;2.77;;;;;;;1.77;94.06;99463.94;5010914;28;20231;-60
2023/04/03 06:51:23;;;;;;;6.10;3.67;;;;;;;1.81;90.00;99467.19;5000090;28;20259;-60
2023/04/03 06:53:52;;;;;;;6.47;3.30;;;;;;;1.90;89.66;99461.59;5008126;28;20856;-60
2023/04/03 06:56:20;;;;;;;3.37;2.50;;;;;;;1.99;92.38;99465.47;5005597;28;20248;-60
2023/04/03 06:58:49;;;;;;;8.33;3.23;;;;;;;2.12;93.18;99466.50;5010607;28;20228;-61
2023/04/03 07:01:17;;;;;;;4.47;3.00;;;;;;;2.25;87.04;99473.63;4993287;28;20226;-60
2023/04/03 07:03:44;;;;;;;4.10;2.90;;;;;;;2.49;88.53;99476.72;5013032;28;20224;-60
2023/04/03 07:06:13;;;;;;;5.50;2.97;;;;;;;2.72;83.71;99477.25;5002533;28;20290;-59
2023/04/03 07:08:41;;;;;;;4.73;2.90;;;;;;;2.83;83.50;99479.31;5004404;28;20243;-59
2023/04/03 07:11:09;;;;;;;5.33;2.80;;;;;;;2.95;81.88;99482.06;5003244;28;20232;-59
2023/04/03 07:13:37;;;;;;;4.17;2.60;;;;;;;3.08;81.50;99481.41;5004427;28;20258;-60
2023/04/03 07:16:06;;;;;;;4.00;2.43;;;;;;;3.34;81.43;99477.41;4999858;28;20233;-59
2023/04/03 07:18:33;;;;;;;3.27;2.50;;;;;;;3.64;79.77;99478.41;5010827;28;21072;-59
2023/04/03 07:20:59;;;;;;;6.33;3.10;;;;;;;3.48;77.62;99478.41;5009899;28;20727;-61
2023/04/03 07:23:26;;;;;;;4.80;2.87;;;;;;;3.44;76.95;99482.91;4995078;28;20282;-58
2023/04/03 07:25:53;;;;;;;6.13;3.20;;;;;;;3.51;76.18;99486.00;5006412;28;20232;-59
2023/04/03 07:28:22;;;;;;;4.03;2.80;;;;;;;3.59;75.12;99496.72;5005682;28;20653;-59
2023/04/03 07:30:52;;;;;;;3.60;2.43;;;;;;;3.74;75.86;99491.63;5008725;28;20249;-61
2023/04/03 07:33:21;;;;;;;5.40;3.20;;;;;;;3.83;74.29;99488.53;5003066;28;20311;-59
2023/04/03 07:35:48;;;;;;;2.90;2.37;;;;;;;3.98;72.02;99492.00;5011193;28;20232;-59
2023/04/03 07:38:15;;;;;;;4.07;2.47;;;;;;;4.13;70.84;99490.31;5005350;28;20232;-59
2023/04/03 07:40:47;;;;;;;3.37;2.50;;;;;;;4.25;72.54;99493.91;5005210;28;20315;-59
2023/04/03 07:43:14;;;;;;;3.73;2.20;;;;;;;4.58;73.24;99496.28;5007422;28;20220;-60
2023/04/03 07:45:40;;;;;;;4.17;2.43;;;;;;;4.82;66.72;99493.16;5008981;28;20231;-60
2023/04/03 07:48:08;;;;;;;3.00;2.20;;;;;;;5.19;68.38;99499.59;5006904;28;20240;-60
2023/04/03 07:50:36;;;;;;;3.20;2.43;;;;;;;5.54;65.90;99494.81;5009097;28;20718;-60
2023/04/03 07:53:03;;;;;;;2.90;2.03;;;;;;;5.85;61.89;99497.19;5011585;28;20750;-61
2023/04/03 07:55:30;;;;;;;2.47;1.67;;;;;;;5.71;64.38;99496.31;5008020;28;20347;-59
2023/04/03 07:57:57;;;;;;;3.13;1.90;;;;;;;5.48;62.43;99508.13;5006434;28;20441;-60
2023/04/03 08:00:24;;;;;;;2.93;2.07;;;;;;;5.21;61.92;99510.69;5004060;28;20248;-60
2023/04/03 08:02:51;;;;;;;4.13;1.90;;;;;;;4.99;61.06;99501.66;5008789;28;20227;-59
2023/04/03 08:05:20;;;;;;;4.97;2.20;;;;;;;5.41;62.77;99509.44;5005707;28;20256;-60
2023/04/03 08:07:47;;;;;;;2.83;1.57;;;;;;;5.20;59.22;99507.25;5012371;28;20233;-59
2023/04/03 08:10:15;;;;;;;2.87;2.03;;;;;;;5.39;59.91;99506.94;5010485;28;20306;-59
2023/04/03 08:12:41;;;;;;;2.20;1.63;;;;;;;5.72;63.01;99510.09;5010920;28;20235;-60
2023/04/03 08:15:09;;;;;;;2.50;1.93;;;;;;;6.13;63.88;99513.56;5012473;28;20322;-59
2023/04/03 08:17:36;;;;;;;3.50;1.67;;;;;;;6.02;56.95;99504.72;5009652;28;20606;-60
2023/04/03 08:20:04;;;;;;;2.47;1.77;;;;;;;5.94;58.43;99503.50;5007572;28;20220;-60
2023/04/03 08:22:32;;;;;;;1.90;1.70;;;;;;;5.95;58.34;99503.44;5008970;28;20259;-60
2023/04/03 08:24:59;;;;;;;1.80;1.40;;;;;;;6.08;56.89;99507.84;5004719;28;20252;-60
2023/04/03 08:27:26;;;;;;;1.73;1.37;;;;;;;5.78;56.75;99506.28;5008096;28;20291;-60
2023/04/03 08:29:55;;;;;;;3.20;1.80;;;;;;;6.02;56.31;99509.91;5002115;28;20251;-59
2023/04/03 08:32:22;;;;;;;3.07;1.87;;;;;;;6.23;57.76;99514.63;5009992;28;20303;-60
2023/04/03 08:34:48;;;;;;;4.00;1.60;;;;;;;6.05;57.24;99514.91;5008587;28;20236;-60
2023/04/03 08:37:15;;;;;;;2.83;1.87;;;;;;;6.21;56.40;99506.13;4996140;28;20235;-60
2023/04/03 08:39:44;;;;;;;3.20;1.97;;;;;;;6.51;56.98;99512.78;5002308;28;20351;-60
2023/04/03 08:42:19;;;;;;;1.97;1.63;;;;;;;6.53;56.30;99513.50;4996061;28;20228;-60
2023/04/03 08:44:53;;;;;;;3.27;2.30;;;;;;;6.45;56.60;99510.59;5007175;28;20867;-59
2023/04/03 08:47:25;;;;;;;2.90;1.93;;;;;;;6.71;55.88;99524.44;5002159;28;20237;-60
2023/04/03 08:49:56;;;;;;;2.23;1.53;;;;;;;6.30;55.38;99520.22;5006678;28;20227;-60
2023/04/03 08:52:32;;;;;;;4.20;2.70;;;;;;;6.18;54.01;99514.09;5002915;28;20233;-59
2023/04/03 08:55:07;;;;;;;2.93;1.60;;;;;;;5.85;57.73;99523.09;4998153;28;20239;-60
2023/04/03 08:57:37;;;;;;;7.57;2.28;;;;;;;6.05;57.13;99514.91;5005170;28;20435;-59
2023/04/03 09:00:08;;;;;;;6.53;1.80;;;;;;;6.33;55.34;99514.84;5001605;28;20237;-60
2023/04/03 09:02:42;;;;;;;2.70;1.83;;;;;;;6.27;56.57;99525.63;4996017;28;20240;-59
2023/04/03 09:05:13;;;;;;;4.60;2.00;;;;;;;6.58;56.25;99523.59;4998587;28;20755;-60
2023/04/03 09:07:43;;;;;;;3.57;2.03;;;;;;;6.79;55.35;99523.88;5013053;28;20617;-60
2023/04/03 09:10:15;;;;;;;1.73;1.57;;;;;;;7.07;56.39;99522.81;5005443;28;20283;-61
2023/04/03 09:12:45;;;;;;;2.10;1.87;;;;;;;7.32;52.81;99520.31;5005830;28;20724;-61
2023/04/03 09:15:19;;;;;;;207.70;83.47;;;;;;;6.63;54.84;99530.13;5001610;28;20239;-61
2023/04/03 09:17:57;;;;;;;11.43;4.63;;;;;;;6.57;55.07;99520.16;5008107;28;20240;-62
2023/04/03 09:20:34;;;;;;;5.53;2.67;;;;;;;6.83;55.85;99521.94;4998697;28;20310;-60
2023/04/03 09:23:01;;;;;;;4.50;2.90;;;;;;;6.88;56.95;99528.47;5007638;28;20223;-59
2023/04/03 09:25:34;;;;;;;4.17;2.30;;;;;;;6.93;58.18;99518.59;5004514;28;20233;-58
2023/04/03 09:28:01;;;;;;;3.23;2.13;;;;;;;7.21;54.60;99521.03;5004838;28;20847;-59
2023/04/03 09:30:28;;;;;;;6.27;2.63;;;;;;;6.90;54.81;99526.59;5001773;28;20628;-58
2023/04/03 09:32:57;;;;;;;4.47;2.30;;;;;;;6.94;53.24;99529.78;5006626;28;20310;-60
2023/04/03 09:35:26;;;;;;;4.20;2.10;;;;;;;7.18;51.29;99522.09;5003047;28;20248;-58
2023/04/03 09:37:56;;;;;;;3.67;2.07;;;;;;;7.17;54.96;99527.38;5005615;28;20240;-59
2023/04/03 09:40:38;;;;;;;5.70;2.40;;;;;;;7.50;55.07;99528.56;4997705;28;20229;-60
2023/04/03 09:43:21;;;;;;;5.27;2.00;;;;;;;7.76;57.26;99531.88;5006374;28;20785;-60
2023/04/03 09:45:49;;;;;;;3.80;2.83;;;;;;;7.86;53.24;99528.63;5005322;28;20286;-60
2023/04/03 09:48:18;;;;;;;3.57;2.40;;;;;;;7.80;52.32;99532.50;5003476;28;20330;-60
2023/04/03 09:51:15;;;;;;;3.80;2.27;;;;;;;8.30;50.14;99521.09;4999816;28;20236;-60
2023/04/03 09:53:44;;;;;;;2.63;2.23;;;;;;;8.13;50.60;99529.22;4985939;28;20319;-60
2023/04/03 09:56:22;;;;;;;5.17;2.20;;;;;;;8.01;51.47;99532.72;5004160;28;20243;-60
2023/04/03 09:58:51;;;;;;;3.73;2.30;;;;;;;7.54;50.04;99532.59;5028908;23;20236;-62
2023/04/03 10:01:26;;;;;;;3.33;2.30;;;;;;;6.63;54.66;99537.91;5008247;28;20236;-62
2023/04/03 10:04:05;;;;;;;3.27;2.20;;;;;;;7.12;51.47;99530.31;5000319;28;20227;-62
2023/04/03 10:06:35;;;;;;;2.27;1.93;;;;;;;7.64;53.19;99533.59;5000651;28;20585;-62
2023/04/03 10:09:05;;;;;;;3.60;2.40;;;;;;;7.82;52.63;99521.03;5001913;28;20239;-62
2023/04/03 10:11:32;;;;;;;4.83;2.30;;;;;;;8.33;49.13;99526.91;5001251;28;20267;-62
2023/04/03 10:14:02;;;;;;;3.07;1.93;;;;;;;8.39;49.14;99539.47;5001667;28;20236;-62
2023/04/03 10:16:44;;;;;;;5.53;2.20;;;;;;;7.76;49.56;99531.88;5001539;28;20723;-62
2023/04/03 10:19:30;;;;;;;4.03;2.20;;;;;;;7.11;49.63;99531.25;5000201;28;20303;-62
2023/04/03 10:22:01;;;;;;;3.80;2.17;;;;;;;6.85;51.93;99543.41;5003755;28;20239;-62
2023/04/03 10:24:37;;;;;;;3.33;1.90;;;;;;;7.17;51.73;99536.00;4998800;28;20229;-61
2023/04/03 10:27:12;;;;;;;3.97;2.10;;;;;;;7.27;50.65;99533.59;5002497;28;20227;-61
2023/04/03 10:29:44;;;;;;;4.53;1.90;;;;;;;7.05;50.40;99529.88;5000850;28;20247;-61
2023/04/03 10:32:21;;;;;;;4.33;2.27;;;;;;;7.04;53.14;99530.81;5003683;28;20229;-61
2023/04/03 10:34:51;;;;;;;5.53;2.00;;;;;;;7.11;50.35;99523.44;5005551;28;20568;-61
2023/04/03 10:37:25;;;;;;;3.00;2.10;;;;;;;7.19;51.37;99528.09;5003171;28;20236;-61
2023/04/03 10:39:58;;;;;;;4.53;2.27;;;;;;;7.65;51.44;99530.06;5006504;28;20236;-62
2023/04/03 10:42:36;;;;;;;3.23;1.97;;;;;;;7.78;48.18;99524.00;5003975;28;20242;-62
2023/04/03 10:45:19;;;;;;;5.57;2.57;;;;;;;7.35;51.08;99526.09;5004781;28;20231;-62
2023/04/03 10:47:59;;;;;;;2.93;2.30;;;;;;;7.94;52.46;99528.91;5004443;28;20231;-62
2023/04/03 10:50:38;;;;;;;2.50;2.00;;;;;;;8.25;50.33;99521.44;5002146;28;20235;-62
2023/04/03 10:53:15;;;;;;;4.83;2.30;;;;;;;8.17;50.93;99527.19;5003377;28;20228;-62
2023/04/03 10:55:49;;;;;;;3.40;2.30;;;;;;;8.02;48.05;99517.91;5006932;28;20235;-62
2023/04/03 10:58:27;;;;;;;4.03;2.10;;;;;;;7.83;49.41;99524.50;5003860;28;20243;-62
2023/04/03 11:00:57;;;;;;;2.57;1.90;;;;;;;7.26;49.47;99529.34;5006300;28;20310;-62
2023/04/03 11:03:31;;;;;;;4.60;2.27;;;;;;;7.52;50.12;99522.28;5002622;28;20240;-62
2023/04/03 11:06:01;;;;;;;4.70;2.03;;;;;;;8.14;48.09;99530.03;5005630;28;20238;-62
2023/04/03 11:08:34;;;;;;;2.47;2.10;;;;;;;8.04;50.15;99524.69;5003039;28;20232;-62
2023/04/03 11:11:03;;;;;;;6.00;2.53;;;;;;;8.18;49.72;99517.66;5004486;28;20239;-62
2023/04/03 11:13:36;;;;;;;7.33;2.27;;;;;;;8.58;44.31;99517.28;5003478;28;20240;-62
2023/04/03 11:16:05;;;;;;;3.23;2.20;;;;;;;7.97;47.41;99515.66;5004965;28;20240;-62
2023/04/03 11:18:40;;;;;;;3.87;1.93;;;;;;;8.11;47.19;99522.44;5003647;28;20213;-63
2023/04/03 11:21:13;;;;;;;3.57;1.50;;;;;;;7.12;49.54;99522.53;5002908;28;20278;-63
2023/04/03 11:23:41;;;;;;;2.53;1.73;;;;;;;7.52;48.37;99516.28;5005653;28;20291;-62
2023/04/03 11:26:11;;;;;;;5.80;2.30;;;;;;;7.36;49.05;99514.78;5003018;28;20280;-62
2023/04/03 11:28:40;;;;;;;5.20;1.97;;;;;;;7.20;48.71;99506.38;5006034;28;20771;-62
2023/04/03 11:31:33;;;;;;;3.60;1.83;;;;;;;7.54;49.10;99501.41;5002600;28;20640;-62
2023/04/03 11:34:08;;;;;;;4.40;1.80;;;;;;;7.78;51.12;99501.41;5004024;28;20228;-62
2023/04/03 11:36:42;;;;;;;4.07;1.97;;;;;;;7.90;48.20;99507.50;5003002;28;20238;-62
2023/04/03 11:39:20;;;;;;;5.33;2.30;;;;;;;7.88;48.26;99509.38;5002099;28;20232;-62
2023/04/03 11:41:47;;;;;;;6.00;1.80;;;;;;;7.81;52.63;99506.38;4992094;28;20695;-62
2023/04/03 11:44:33;;;;;;;4.27;1.90;;;;;;;8.01;51.90;99517.09;5002290;28;20228;-62
2023/04/03 11:47:02;;;;;;;7.20;2.07;;;;;;;8.29;50.91;99504.69;4989936;28;20224;-62
2023/04/03 11:49:52;;;;;;;2.90;1.90;;;;;;;8.71;45.21;99502.38;4988095;28;20221;-62